Cloverdale, Vermont
Current Conditions -  °F | °C
As of 1:54 PM on Friday 24 Oct 2014 (Local Time) from KMVL Reporting Station
Overcast Overcast  
Wind Chill: 38°   Ceiling: 1000
Heat Index: 43°   Visibility: 10mi
Dew Point: 38°   Wind: 8mph
Humidity: 82%   Direction: 340°NNW
Pressure: 29.81"   Gusts: NA
Location:  44.6543°N, 72.8545°W
Report Text: KMVL 241754Z AUTO 34007KT 10SM OVC010 06/03 A2981 RMK AO2 CIG 008V014 SLP101 T00610033 10067 20050 57010
Loading
Personal Weather Stations






























Interactive Weather Map
Tropical Storm Tracking
New forecast layout! Learn more

10-Day Weather Forecast

Advertisements
Track Severe Weather on mobile